createdAt,value
2023-06-26T00:01:54.000Z,7.1
2023-06-26T00:04:39.000Z,7.3
2023-06-26T00:07:23.000Z,6.7
2023-06-26T00:12:53.000Z,6.7
2023-06-26T00:18:22.000Z,6.7
2023-06-26T00:21:06.000Z,7.5
2023-06-26T00:22:24.000Z,7.7
2023-06-26T00:23:51.000Z,7.3
2023-06-26T00:26:36.000Z,7
2023-06-26T00:29:20.000Z,7.5
2023-06-26T00:32:05.000Z,7.5
2023-06-26T00:34:50.000Z,7.5
2023-06-26T00:37:34.000Z,8.3
2023-06-26T00:40:19.000Z,8.1
2023-06-26T00:43:04.000Z,7.5
2023-06-26T00:45:48.000Z,6.7
2023-06-26T00:49:51.000Z,6.9
2023-06-26T00:51:18.000Z,6.3
2023-06-26T00:54:02.000Z,6.9
2023-06-26T00:56:47.000Z,6.3
2023-06-26T00:59:31.000Z,7.2
2023-06-26T01:02:16.000Z,8.3
2023-06-26T01:05:01.000Z,8.5
2023-06-26T01:07:45.000Z,6.9
2023-06-26T01:10:30.000Z,7.7
2023-06-26T01:15:59.000Z,7
2023-06-26T01:17:17.000Z,8.3
2023-06-26T01:18:44.000Z,8.3
2023-06-26T01:24:13.000Z,7.1
2023-06-26T01:26:58.000Z,7.8
2023-06-26T01:32:27.000Z,7.3
2023-06-26T01:40:41.000Z,7.9
2023-06-26T01:43:26.000Z,7.1
2023-06-26T01:44:43.000Z,8.3
2023-06-26T01:46:10.000Z,7.6
2023-06-26T01:48:55.000Z,8.4
2023-06-26T01:51:40.000Z,7.9
2023-06-26T01:54:24.000Z,8
2023-06-26T01:59:37.000Z,8.7
2023-06-26T02:05:06.000Z,8.4
2023-06-26T02:07:51.000Z,9.7
2023-06-26T02:10:36.000Z,8.1
2023-06-26T02:12:10.000Z,9
2023-06-26T02:13:28.000Z,9.8
2023-06-26T02:16:29.000Z,8.6
2023-06-26T02:19:13.000Z,8.5
2023-06-26T02:21:58.000Z,8.1
2023-06-26T02:24:43.000Z,9.6
2023-06-26T02:30:12.000Z,7.1
2023-06-26T02:32:57.000Z,7.4
2023-06-26T02:38:26.000Z,7.7
2023-06-26T02:39:44.000Z,7.7
2023-06-26T02:41:11.000Z,8.1
2023-06-26T02:43:55.000Z,8.3
2023-06-26T02:46:40.000Z,7.8
2023-06-26T02:49:24.000Z,7.4
2023-06-26T02:52:09.000Z,7.6
2023-06-26T02:54:54.000Z,7.8
2023-06-26T02:57:38.000Z,7.5
2023-06-26T03:00:23.000Z,8.6
2023-06-26T03:03:08.000Z,8.6
2023-06-26T03:05:52.000Z,8.5
2023-06-26T03:07:10.526Z,7.7
2023-06-26T03:08:37.000Z,6.7
2023-06-26T03:11:22.000Z,6.4
2023-06-26T03:14:06.000Z,6.8
2023-06-26T03:19:19.000Z,8.2
2023-06-26T03:22:04.000Z,7
2023-06-26T03:24:48.000Z,8.4
2023-06-26T03:27:33.000Z,8.3
2023-06-26T03:30:18.000Z,7.2
2023-06-26T03:34:36.000Z,7.7
2023-06-26T03:35:54.000Z,6.9
2023-06-26T03:38:39.000Z,6.4
2023-06-26T03:41:23.000Z,6.7
2023-06-26T03:44:08.000Z,7.2
2023-06-26T03:46:53.000Z,7.8
2023-06-26T03:54:50.000Z,8.3
2023-06-26T03:57:35.000Z,6.8
2023-06-26T04:00:20.000Z,6.5
2023-06-26T04:02:03.000Z,7.2
2023-06-26T04:03:21.000Z,8
2023-06-26T04:06:05.000Z,7.6
2023-06-26T04:08:50.000Z,7.2
2023-06-26T04:11:35.000Z,6.7
2023-06-26T04:14:19.000Z,6.8
2023-06-26T04:17:04.000Z,6.8
2023-06-26T04:19:48.000Z,6.9
2023-06-26T04:22:33.000Z,7.2
2023-06-26T04:25:18.000Z,6.8
2023-06-26T04:29:29.000Z,6.9
2023-06-26T04:30:47.000Z,7.1
2023-06-26T04:33:32.000Z,6.1
2023-06-26T04:36:16.000Z,6.2
2023-06-26T04:39:01.000Z,7.2
2023-06-26T04:41:46.000Z,6.6
2023-06-26T04:44:30.000Z,6.8
2023-06-26T04:47:15.000Z,6.6
2023-06-26T04:49:59.000Z,7
2023-06-26T04:52:44.000Z,5.7
2023-06-26T04:55:29.000Z,6.2
2023-06-26T04:56:56.000Z,5.6
2023-06-26T04:58:13.000Z,5.7
2023-06-26T05:03:26.000Z,6.1
2023-06-26T05:06:11.000Z,6.2
2023-06-26T05:08:56.000Z,6.7
2023-06-26T05:11:40.000Z,6.6
2023-06-26T05:14:41.000Z,6.5
2023-06-26T05:17:26.000Z,7.5
2023-06-26T05:20:11.000Z,7.1
2023-06-26T05:22:55.000Z,7
2023-06-26T05:24:22.000Z,7.5
2023-06-26T05:25:40.000Z,7.3
2023-06-26T05:28:25.000Z,6.7
2023-06-26T05:31:09.000Z,7.7
2023-06-26T05:33:54.000Z,7.7
2023-06-26T05:36:38.000Z,7.3
2023-06-26T05:39:23.000Z,7.8
2023-06-26T05:42:08.000Z,7.5
2023-06-26T05:45:09.000Z,7.7
2023-06-26T05:47:53.000Z,7.6
2023-06-26T05:50:38.000Z,8.2
2023-06-26T05:51:56.000Z,7.5
2023-06-26T05:53:23.000Z,8.1
2023-06-26T05:56:07.000Z,7.4
2023-06-26T05:58:52.000Z,7.2
2023-06-26T06:01:37.000Z,6.6
2023-06-26T06:04:21.000Z,7.9
2023-06-26T06:07:06.000Z,7.8
2023-06-26T06:09:50.000Z,6.7
2023-06-26T06:12:35.000Z,7.2
2023-06-26T06:15:20.000Z,7.2
2023-06-26T06:18:04.000Z,6.9
2023-06-26T06:19:22.000Z,7
2023-06-26T06:20:49.000Z,6.7
2023-06-26T06:23:34.000Z,6.1
2023-06-26T06:26:18.000Z,6.8
2023-06-26T06:29:03.000Z,7
2023-06-26T06:31:48.000Z,6.2
2023-06-26T06:34:32.000Z,5.9
2023-06-26T06:40:02.000Z,5.7
2023-06-26T06:42:46.000Z,5.4
2023-06-26T06:45:31.000Z,5.6
2023-06-26T06:46:49.000Z,5.4
2023-06-26T06:48:15.000Z,5.3
2023-06-26T06:51:16.000Z,5.2
2023-06-26T06:52:46.000Z,5
2023-06-26T06:54:17.000Z,5.3
2023-06-26T06:57:18.000Z,4.6
2023-06-26T06:58:48.000Z,4.9
2023-06-26T07:00:19.000Z,4.9
2023-06-26T07:01:49.000Z,4.5
2023-06-26T07:04:50.000Z,4.6
2023-06-26T07:06:21.000Z,4.5
2023-06-26T07:09:22.000Z,4.6
2023-06-26T07:10:52.000Z,4.8
2023-06-26T07:12:23.000Z,4.5
2023-06-26T07:13:53.000Z,4.8
2023-06-26T07:15:10.000Z,4.2
2023-06-26T07:16:27.000Z,4.5
2023-06-26T07:17:58.000Z,4.6
2023-06-26T07:19:28.000Z,4.1
2023-06-26T07:20:59.000Z,4.5
2023-06-26T07:22:29.000Z,4.2
2023-06-26T07:24:00.000Z,4.3
2023-06-26T07:25:30.000Z,4.4
2023-06-26T07:27:01.000Z,4.1
2023-06-26T07:28:31.000Z,4.6
2023-06-26T07:30:02.000Z,5
2023-06-26T07:31:19.000Z,4.2
2023-06-26T07:34:06.000Z,4.2
2023-06-26T07:35:36.000Z,4.7
2023-06-26T07:37:07.000Z,4.3
2023-06-26T07:38:37.000Z,4.4
2023-06-26T07:40:08.000Z,4.8
2023-06-26T07:41:38.000Z,4.2
2023-06-26T07:43:09.000Z,4.6
2023-06-26T07:44:39.000Z,4.6
2023-06-26T07:46:10.000Z,4.8
2023-06-26T07:47:27.000Z,4.4
2023-06-26T07:50:14.000Z,4.7
2023-06-26T07:51:45.000Z,4.7
2023-06-26T07:53:15.000Z,5.1
2023-06-26T07:54:46.000Z,4.5
2023-06-26T07:56:16.000Z,5.2
2023-06-26T07:57:47.000Z,4.8
2023-06-26T07:59:17.000Z,4.4
2023-06-26T08:00:48.000Z,4.8
2023-06-26T08:02:18.000Z,4.4
2023-06-26T08:03:35.000Z,5
2023-06-26T08:04:52.000Z,4.7
2023-06-26T08:06:23.000Z,4.5
2023-06-26T08:07:53.000Z,4.3
2023-06-26T08:10:54.000Z,4.7
2023-06-26T08:12:25.000Z,5.3
2023-06-26T08:13:55.000Z,5.2
2023-06-26T08:15:26.000Z,4.2
2023-06-26T08:16:56.000Z,4.2
2023-06-26T08:18:27.000Z,4.3
2023-06-26T08:19:44.000Z,4.8
2023-06-26T08:21:00.000Z,4.4
2023-06-26T08:24:01.000Z,5.3
2023-06-26T08:25:32.000Z,4.5
2023-06-26T08:28:33.000Z,4.9
2023-06-26T08:30:03.000Z,4.9
2023-06-26T08:31:34.000Z,4.6
2023-06-26T08:33:04.000Z,4.7
2023-06-26T08:34:35.000Z,4.8
2023-06-26T08:35:52.000Z,4.9
2023-06-26T08:37:08.000Z,5.1
2023-06-26T08:38:39.000Z,4.6
2023-06-26T08:40:09.000Z,4.8
2023-06-26T08:41:40.000Z,4.7
2023-06-26T08:43:10.000Z,4.5
2023-06-26T08:44:41.000Z,5
2023-06-26T08:46:11.000Z,4.6
2023-06-26T08:47:42.000Z,5.6
2023-06-26T08:49:13.000Z,5
2023-06-26T08:50:43.000Z,4.8
2023-06-26T08:53:17.000Z,5.2
2023-06-26T08:54:47.000Z,4.7
2023-06-26T08:57:49.000Z,5.1
2023-06-26T08:59:19.000Z,4.7
2023-06-26T09:00:50.000Z,5
2023-06-26T09:02:20.000Z,4.5
2023-06-26T09:03:51.000Z,4.8
2023-06-26T09:05:21.000Z,4.7
2023-06-26T09:06:52.000Z,5.1
2023-06-26T09:08:08.000Z,4.3
2023-06-26T09:09:25.000Z,4.7
2023-06-26T09:10:56.000Z,4.9
2023-06-26T09:12:26.000Z,4.3
2023-06-26T09:15:27.000Z,4.5
2023-06-26T09:18:28.000Z,4.6
2023-06-26T09:19:59.000Z,4.7
2023-06-26T09:21:29.000Z,4.9
2023-06-26T09:23:00.000Z,4.6
2023-06-26T09:24:17.000Z,4.2
2023-06-26T09:25:34.000Z,4.5
2023-06-26T09:27:04.000Z,4.4
2023-06-26T09:28:35.000Z,4.4
2023-06-26T09:30:05.000Z,4.4
2023-06-26T09:31:36.000Z,4.5
2023-06-26T09:33:06.000Z,4.3
2023-06-26T09:34:37.000Z,4.7
2023-06-26T09:36:07.000Z,4.5
2023-06-26T09:37:38.000Z,4.4
2023-06-26T09:39:08.000Z,4.4
2023-06-26T09:40:25.000Z,4.3
2023-06-26T09:41:42.000Z,4.6
2023-06-26T09:46:14.000Z,4.3
2023-06-26T09:47:44.000Z,4.4
2023-06-26T09:49:15.000Z,4.1
2023-06-26T09:50:45.000Z,3.7
2023-06-26T09:53:46.000Z,4
2023-06-26T09:56:34.000Z,3.7
2023-06-26T09:57:51.000Z,4
2023-06-26T09:59:21.000Z,3.8
2023-06-26T10:00:52.000Z,3.5
2023-06-26T10:03:53.000Z,3.4
2023-06-26T10:05:23.000Z,3.5
2023-06-26T10:06:54.000Z,3.2
2023-06-26T10:08:24.000Z,3.6
2023-06-26T10:09:55.000Z,3.5
2023-06-26T10:11:25.000Z,3.1
2023-06-26T10:12:42.000Z,3.4
2023-06-26T10:13:59.000Z,3.3
2023-06-26T10:17:00.000Z,4
2023-06-26T10:18:31.000Z,3.4
2023-06-26T10:20:01.000Z,3.8
2023-06-26T10:21:32.000Z,3.6
2023-06-26T10:23:02.000Z,3.6
2023-06-26T10:24:33.000Z,3.5
2023-06-26T10:26:03.000Z,3.5
2023-06-26T10:27:34.000Z,3.8
2023-06-26T10:28:51.000Z,3.6
2023-06-26T10:30:08.000Z,3.5
2023-06-26T10:31:38.000Z,3.5
2023-06-26T10:33:09.000Z,3.2
2023-06-26T10:36:10.000Z,3.1
2023-06-26T10:37:40.000Z,2.8
2023-06-26T10:39:11.000Z,3.3
2023-06-26T10:42:12.000Z,2.8
2023-06-26T10:44:59.000Z,2.7
2023-06-26T10:47:47.000Z,3
2023-06-26T10:49:17.000Z,2.8
2023-06-26T10:50:48.000Z,2.6
2023-06-26T10:52:18.000Z,2.9
2023-06-26T10:53:57.000Z,2.7
2023-06-26T10:55:27.000Z,2.6
2023-06-26T10:56:58.000Z,2.4
2023-06-26T10:58:28.000Z,2.4
2023-06-26T10:59:59.000Z,2.5
2023-06-26T11:01:16.000Z,2.6
2023-06-26T11:02:33.000Z,2.6
2023-06-26T11:05:34.000Z,3
2023-06-26T11:07:04.000Z,2.7
2023-06-26T11:08:35.000Z,2.4
2023-06-26T11:11:36.000Z,2.4
2023-06-26T11:13:06.000Z,2.6
2023-06-26T11:14:37.000Z,2.9
2023-06-26T11:16:07.000Z,2.4
2023-06-26T11:17:24.000Z,2.6
2023-06-26T11:18:41.000Z,2.4
2023-06-26T11:20:11.000Z,2.6
2023-06-26T11:21:42.000Z,2.4
2023-06-26T11:23:12.000Z,2.7
2023-06-26T11:26:13.000Z,3
2023-06-26T11:29:14.000Z,2.6
2023-06-26T11:30:45.000Z,2.8
2023-06-26T11:32:16.000Z,2.7
2023-06-26T11:33:32.000Z,2.8
2023-06-26T11:34:49.000Z,2.6
2023-06-26T11:39:21.000Z,2.8
2023-06-26T11:40:52.000Z,3
2023-06-26T11:42:22.000Z,2.6
2023-06-26T11:43:53.000Z,2.4
2023-06-26T11:45:23.000Z,2.8
2023-06-26T11:46:54.000Z,2.8
2023-06-26T11:48:24.000Z,3.3
2023-06-26T11:49:41.000Z,2.9
2023-06-26T11:50:58.000Z,2.7
2023-06-26T11:52:29.000Z,2.7
2023-06-26T11:55:30.000Z,3
2023-06-26T11:57:00.000Z,2.6
2023-06-26T11:58:31.000Z,2.8
2023-06-26T12:00:01.000Z,2.7
2023-06-26T12:03:02.000Z,2.3
2023-06-26T12:05:50.000Z,2.8
2023-06-26T12:08:37.000Z,2.9
2023-06-26T12:10:08.000Z,2.8
2023-06-26T12:13:09.000Z,2.9
2023-06-26T12:16:10.000Z,3
2023-06-26T12:17:40.000Z,2.8
2023-06-26T12:19:11.000Z,3
2023-06-26T12:21:58.000Z,2.8
2023-06-26T12:23:15.000Z,2.8
2023-06-26T12:24:45.000Z,2.7
2023-06-26T12:27:46.000Z,2.5
2023-06-26T12:30:47.000Z,2.8
2023-06-26T12:32:18.000Z,2.6
2023-06-26T12:33:48.000Z,2.5
2023-06-26T12:35:19.000Z,2.6
2023-06-26T12:36:49.000Z,2.5
2023-06-26T12:38:06.000Z,2.3
2023-06-26T12:39:23.000Z,2.1
2023-06-26T12:40:54.000Z,2.3
2023-06-26T12:42:24.000Z,2
2023-06-26T12:43:55.000Z,2.1
2023-06-26T12:45:25.000Z,1.9
2023-06-26T12:48:26.000Z,1.9
2023-06-26T12:49:57.000Z,1.9
2023-06-26T12:52:58.000Z,1.7
2023-06-26T12:54:15.000Z,1.9
2023-06-26T12:55:32.000Z,1.7
2023-06-26T12:57:02.000Z,1.8
2023-06-26T12:58:33.000Z,1.7
2023-06-26T13:00:03.000Z,2
2023-06-26T13:01:34.000Z,1.5
2023-06-26T13:03:04.000Z,1.8
2023-06-26T13:04:35.000Z,1.7
2023-06-26T13:06:05.000Z,1.6
2023-06-26T13:07:36.000Z,1.5
2023-06-26T13:10:23.000Z,1.5
2023-06-26T13:11:40.000Z,1.8
2023-06-26T13:13:11.000Z,1.7
2023-06-26T13:14:41.000Z,1.5
2023-06-26T13:19:13.000Z,1.4
2023-06-26T13:20:43.000Z,1.7
2023-06-26T13:22:14.000Z,1.7
2023-06-26T13:23:44.000Z,1.5
2023-06-26T13:25:15.000Z,1.4
2023-06-26T13:26:32.000Z,1.6
2023-06-26T13:27:49.000Z,1.4
2023-06-26T13:30:50.000Z,1.5
2023-06-26T13:32:20.000Z,1.5
2023-06-26T13:33:51.000Z,1.3
2023-06-26T13:35:21.000Z,1.3
2023-06-26T13:36:52.000Z,1.3
2023-06-26T13:38:22.000Z,1.4
2023-06-26T13:41:24.000Z,1.3
2023-06-26T13:42:40.000Z,1.2
2023-06-26T13:43:57.000Z,1.5
2023-06-26T13:45:28.000Z,1.3
2023-06-26T13:46:58.000Z,1.4
2023-06-26T13:49:59.000Z,1.2
2023-06-26T13:51:30.000Z,1.5
2023-06-26T13:54:31.000Z,1.5
2023-06-26T13:56:02.000Z,1.2
2023-06-26T13:57:32.000Z,1.2
2023-06-26T13:58:49.000Z,1.2
2023-06-26T14:00:06.000Z,1.3
2023-06-26T14:01:36.000Z,1.2
2023-06-26T14:03:07.000Z,1.5
2023-06-26T14:04:37.000Z,1.4
2023-06-26T14:06:08.000Z,1.2
2023-06-26T14:07:38.000Z,1.3
2023-06-26T14:10:39.000Z,1.6
2023-06-26T14:12:10.000Z,1.5
2023-06-26T14:13:40.000Z,1.4
2023-06-26T14:14:57.000Z,1.2
2023-06-26T14:16:14.000Z,1.3
2023-06-26T14:17:45.000Z,1.3
2023-06-26T14:19:15.000Z,1.7
2023-06-26T14:20:46.000Z,1.3
2023-06-26T14:22:16.000Z,1.6
2023-06-26T14:23:47.000Z,1.4
2023-06-26T14:25:17.000Z,1.5
2023-06-26T14:26:48.000Z,1.4
2023-06-26T14:28:18.000Z,1.4
2023-06-26T14:29:49.000Z,1.5
2023-06-26T14:31:06.000Z,1.3
2023-06-26T14:32:22.000Z,1.2
2023-06-26T14:35:23.000Z,1.2
2023-06-26T14:36:54.000Z,1.4
2023-06-26T14:38:24.000Z,1.3
2023-06-26T14:39:55.000Z,1.3
2023-06-26T14:41:25.000Z,1.3
2023-06-26T14:42:56.000Z,1.4
2023-06-26T14:44:26.000Z,1.2
2023-06-26T14:45:57.000Z,1.3
2023-06-26T14:47:14.000Z,1.2
2023-06-26T14:48:31.000Z,1.3
2023-06-26T14:51:32.000Z,1.2
2023-06-26T14:53:02.000Z,1.2
2023-06-26T14:54:33.000Z,1.5
2023-06-26T14:56:03.000Z,1.2
2023-06-26T14:59:04.000Z,1.2
2023-06-26T15:00:35.000Z,1.4
2023-06-26T15:02:05.000Z,1.1
2023-06-26T15:03:22.000Z,1.2
2023-06-26T15:04:39.000Z,1.2
2023-06-26T15:06:10.000Z,1.2
2023-06-26T15:09:11.000Z,1.2
2023-06-26T15:10:41.000Z,1.3
2023-06-26T15:13:42.000Z,1.2
2023-06-26T15:15:13.000Z,1.2
2023-06-26T15:18:14.000Z,1.1
2023-06-26T15:19:31.000Z,1.3
2023-06-26T15:20:48.000Z,1.2
2023-06-26T15:22:18.000Z,1.3
2023-06-26T15:23:49.000Z,1.4
2023-06-26T15:25:19.000Z,1.1
2023-06-26T15:26:50.000Z,1.1
2023-06-26T15:28:20.000Z,1.1
2023-06-26T15:29:51.000Z,1.2
2023-06-26T15:32:52.000Z,1.3
2023-06-26T15:34:22.000Z,1.1
2023-06-26T15:35:39.000Z,1.3
2023-06-26T15:36:56.000Z,1
2023-06-26T15:38:27.000Z,1.1
2023-06-26T15:39:57.000Z,1.1
2023-06-26T15:41:28.000Z,1
2023-06-26T15:42:58.000Z,1.1
2023-06-26T15:44:29.000Z,1.2
2023-06-26T15:46:00.000Z,1.1
2023-06-26T15:47:30.000Z,1.3
2023-06-26T15:49:01.000Z,1.1
2023-06-26T15:50:39.000Z,1.2
2023-06-26T15:51:56.000Z,1.1
2023-06-26T15:53:13.000Z,1.1
2023-06-26T15:54:43.000Z,1.1
2023-06-26T15:56:14.000Z,1
2023-06-26T15:57:44.000Z,1
2023-06-26T16:00:45.000Z,1
2023-06-26T16:02:16.000Z,1.1
2023-06-26T16:03:46.000Z,1.2
2023-06-26T16:06:47.000Z,1.2
2023-06-26T16:08:04.000Z,1.2
2023-06-26T16:09:21.000Z,1.3
2023-06-26T16:10:52.000Z,1.1
2023-06-26T16:13:53.000Z,1
2023-06-26T16:15:23.000Z,1
2023-06-26T16:16:54.000Z,1.1
2023-06-26T16:18:24.000Z,0.9
2023-06-26T16:19:55.000Z,1.1
2023-06-26T16:21:25.000Z,1.3
2023-06-26T16:22:56.000Z,1.1
2023-06-26T16:27:00.000Z,0.9
2023-06-26T16:28:31.000Z,1.2
2023-06-26T16:30:01.000Z,0.7
2023-06-26T16:31:32.000Z,1
2023-06-26T16:33:02.000Z,1
2023-06-26T16:34:33.000Z,0.9
2023-06-26T16:36:03.000Z,1.2
2023-06-26T16:37:34.000Z,0.9
2023-06-26T16:39:04.000Z,1
2023-06-26T16:40:21.000Z,1
2023-06-26T16:41:38.000Z,1
2023-06-26T16:43:08.000Z,1
2023-06-26T16:44:39.000Z,1
2023-06-26T16:46:09.000Z,0.8
2023-06-26T16:47:40.000Z,0.9
2023-06-26T16:49:11.000Z,1
2023-06-26T16:50:41.000Z,1
2023-06-26T16:52:12.000Z,0.9
2023-06-26T16:53:42.000Z,0.9
2023-06-26T16:55:13.000Z,1
2023-06-26T16:56:30.000Z,1
2023-06-26T16:59:17.000Z,0.9
2023-06-26T17:00:48.000Z,0.8
2023-06-26T17:02:18.000Z,0.7
2023-06-26T17:03:49.000Z,0.8
2023-06-26T17:05:19.000Z,1
2023-06-26T17:06:50.000Z,0.9
2023-06-26T17:08:20.000Z,1
2023-06-26T17:11:21.000Z,0.9
2023-06-26T17:12:38.000Z,1.1
2023-06-26T17:13:55.000Z,0.8
2023-06-26T17:15:26.000Z,0.8
2023-06-26T17:16:56.000Z,0.8
2023-06-26T17:18:27.000Z,0.9
2023-06-26T17:19:57.000Z,0.8
2023-06-26T17:21:28.000Z,0.9
2023-06-26T17:22:58.000Z,0.8
2023-06-26T17:24:29.000Z,0.7
2023-06-26T17:25:59.000Z,0.7
2023-06-26T17:27:30.000Z,0.8
2023-06-26T17:28:47.000Z,0.7
2023-06-26T17:30:04.000Z,0.8
2023-06-26T17:31:34.000Z,0.8
2023-06-26T17:33:04.000Z,0.9
2023-06-26T17:34:21.000Z,0.8
2023-06-26T17:35:37.000Z,1
2023-06-26T17:36:53.000Z,0.7
2023-06-26T17:38:09.000Z,0.7
2023-06-26T17:40:42.000Z,0.6
2023-06-26T17:41:59.000Z,0.7
2023-06-26T17:43:15.000Z,0.9
2023-06-26T17:44:32.000Z,0.9
2023-06-26T17:45:48.000Z,0.7
2023-06-26T17:47:05.000Z,0.7
2023-06-26T17:49:38.000Z,0.6
2023-06-26T17:50:54.000Z,0.7
2023-06-26T17:52:10.000Z,0.8
2023-06-26T17:53:26.000Z,0.7
2023-06-26T17:54:43.000Z,0.9
2023-06-26T17:55:59.000Z,0.6
2023-06-26T17:58:32.000Z,0.7
2023-06-26T17:59:49.000Z,0.7
2023-06-26T18:01:05.000Z,0.7
2023-06-26T18:03:38.000Z,0.6
2023-06-26T18:04:54.000Z,0.7
2023-06-26T18:06:11.000Z,0.7
2023-06-26T18:07:27.000Z,0.5
2023-06-26T18:08:43.000Z,0.7
2023-06-26T18:10:00.000Z,0.7
2023-06-26T18:12:33.000Z,0.6
2023-06-26T18:13:49.000Z,0.7
2023-06-26T18:15:06.000Z,0.6
2023-06-26T18:16:22.000Z,0.8
2023-06-26T18:17:39.000Z,0.7
2023-06-26T18:18:55.000Z,0.7
2023-06-26T18:20:12.000Z,1
2023-06-26T18:21:28.000Z,0.6
2023-06-26T18:22:45.000Z,0.9
2023-06-26T18:24:01.000Z,0.9
2023-06-26T18:27:50.000Z,0.6
2023-06-26T18:29:07.000Z,0.6
2023-06-26T18:30:23.000Z,0.7
2023-06-26T18:31:39.000Z,0.8
2023-06-26T18:32:55.000Z,0.6
2023-06-26T18:34:12.000Z,0.6
2023-06-26T18:35:28.000Z,0.5
2023-06-26T18:36:45.000Z,0.6
2023-06-26T18:38:01.000Z,0.6
2023-06-26T18:40:34.000Z,0.6
2023-06-26T18:41:51.000Z,0.6
2023-06-26T18:43:07.000Z,0.6
2023-06-26T18:45:40.000Z,0.9
2023-06-26T18:46:56.000Z,0.9
2023-06-26T18:48:13.000Z,0.7
2023-06-26T18:50:46.000Z,0.9
2023-06-26T18:52:02.000Z,0.7
2023-06-26T18:53:18.000Z,1
2023-06-26T18:54:35.000Z,0.8
2023-06-26T18:55:51.000Z,0.8
2023-06-26T18:57:08.000Z,0.8
2023-06-26T18:58:24.000Z,0.7
2023-06-26T18:59:41.000Z,0.7
2023-06-26T19:00:57.000Z,0.7
2023-06-26T19:02:14.000Z,0.8
2023-06-26T19:03:30.000Z,0.7
2023-06-26T19:06:03.000Z,0.8
2023-06-26T19:07:19.000Z,0.8
2023-06-26T19:08:36.000Z,0.8
2023-06-26T19:09:52.000Z,0.8
2023-06-26T19:11:09.000Z,0.6
2023-06-26T19:12:25.000Z,0.8
2023-06-26T19:13:42.000Z,0.7
2023-06-26T19:17:31.000Z,0.7
2023-06-26T19:18:48.000Z,0.9
2023-06-26T19:20:04.000Z,0.7
2023-06-26T19:21:21.000Z,0.7
2023-06-26T19:22:37.000Z,0.7
2023-06-26T19:23:53.000Z,0.7
2023-06-26T19:25:09.000Z,0.8
2023-06-26T19:26:26.000Z,0.7
2023-06-26T19:27:42.000Z,0.8
2023-06-26T19:28:59.000Z,0.8
2023-06-26T19:30:15.000Z,0.9
2023-06-26T19:31:32.000Z,0.8
2023-06-26T19:32:48.000Z,0.9
2023-06-26T19:34:05.000Z,0.8
2023-06-26T19:35:21.000Z,0.7
2023-06-26T19:36:38.000Z,0.7
2023-06-26T19:37:54.000Z,0.7
2023-06-26T19:39:11.000Z,0.7
2023-06-26T19:40:27.000Z,0.8
2023-06-26T19:41:44.000Z,0.8
2023-06-26T19:44:16.000Z,0.8
2023-06-26T19:46:49.000Z,0.8
2023-06-26T19:48:05.000Z,0.9
2023-06-26T19:49:22.000Z,1
2023-06-26T19:50:38.000Z,1
2023-06-26T19:51:54.000Z,0.8
2023-06-26T19:53:11.000Z,0.9
2023-06-26T19:54:27.000Z,0.8
2023-06-26T19:55:44.000Z,0.8
2023-06-26T19:57:00.000Z,0.9
2023-06-26T19:58:16.000Z,0.9
2023-06-26T19:59:33.000Z,0.8
2023-06-26T20:00:49.000Z,0.7
2023-06-26T20:02:06.000Z,0.8
2023-06-26T20:03:22.000Z,1
2023-06-26T20:04:39.000Z,0.9
2023-06-26T20:05:55.000Z,0.8
2023-06-26T20:07:12.000Z,0.9
2023-06-26T20:09:45.000Z,0.9
2023-06-26T20:11:01.000Z,0.9
2023-06-26T20:12:18.000Z,0.9
2023-06-26T20:13:34.000Z,1.1
2023-06-26T20:14:51.000Z,0.9
2023-06-26T20:16:07.000Z,0.9
2023-06-26T20:17:24.000Z,0.9
2023-06-26T20:18:40.000Z,1.2
2023-06-26T20:19:57.000Z,0.8
2023-06-26T20:21:13.000Z,1
2023-06-26T20:22:30.000Z,0.9
2023-06-26T20:26:19.000Z,0.9
2023-06-26T20:27:36.000Z,1
2023-06-26T20:31:25.000Z,1
2023-06-26T20:32:41.000Z,1
2023-06-26T20:33:58.000Z,1.1
2023-06-26T20:35:14.000Z,0.9
2023-06-26T20:36:31.000Z,0.9
2023-06-26T20:37:47.000Z,1
2023-06-26T20:39:51.000Z,0.9
2023-06-26T20:42:39.000Z,1
2023-06-26T20:43:56.000Z,1.3
2023-06-26T20:45:34.000Z,1
2023-06-26T20:47:05.000Z,0.9
2023-06-26T20:48:35.000Z,1
2023-06-26T20:50:06.000Z,1
2023-06-26T20:51:36.000Z,1
2023-06-26T20:53:07.000Z,1
2023-06-26T20:54:37.000Z,1.1
2023-06-26T20:56:08.000Z,1
2023-06-26T20:57:38.000Z,1
2023-06-26T20:58:55.000Z,1.1
2023-06-26T21:00:12.000Z,0.9
2023-06-26T21:01:43.000Z,1.2
2023-06-26T21:03:13.000Z,1.1
2023-06-26T21:04:44.000Z,1.1
2023-06-26T21:06:14.000Z,1.1
2023-06-26T21:09:15.000Z,1.1
2023-06-26T21:10:46.000Z,1
2023-06-26T21:12:16.000Z,1.1
2023-06-26T21:13:47.000Z,1.1
2023-06-26T21:15:04.000Z,0.9
2023-06-26T21:16:20.000Z,0.7
2023-06-26T21:17:51.000Z,0.8
2023-06-26T21:19:21.000Z,1.1
2023-06-26T21:20:52.000Z,1
2023-06-26T21:22:22.000Z,1
2023-06-26T21:23:53.000Z,1
2023-06-26T21:25:23.000Z,1.1
2023-06-26T21:26:54.000Z,1
2023-06-26T21:28:24.000Z,1.1
2023-06-26T21:29:55.000Z,1.2
2023-06-26T21:31:12.000Z,1
2023-06-26T21:32:29.000Z,1.1
2023-06-26T21:35:30.000Z,1.2
2023-06-26T21:37:00.000Z,1.1
2023-06-26T21:38:31.000Z,1.3
2023-06-26T21:40:01.000Z,1.4
2023-06-26T21:41:32.000Z,1.3
2023-06-26T21:43:02.000Z,1.1
2023-06-26T21:44:33.000Z,1.2
2023-06-26T21:46:04.000Z,1.4
2023-06-26T21:47:20.000Z,1.2
2023-06-26T21:48:37.000Z,1.2
2023-06-26T21:50:08.000Z,1
2023-06-26T21:51:38.000Z,1.2
2023-06-26T21:53:09.000Z,1.3
2023-06-26T21:54:39.000Z,1
2023-06-26T21:56:10.000Z,1.1
2023-06-26T21:57:40.000Z,1
2023-06-26T22:00:41.000Z,0.9
2023-06-26T22:02:12.000Z,1
2023-06-26T22:03:29.000Z,1.2
2023-06-26T22:06:16.000Z,1
2023-06-26T22:07:47.000Z,1
2023-06-26T22:09:17.000Z,1.1
2023-06-26T22:10:48.000Z,1.4
2023-06-26T22:12:18.000Z,1.2
2023-06-26T22:13:49.000Z,1
2023-06-26T22:15:19.000Z,1.2
2023-06-26T22:16:50.000Z,1.2
2023-06-26T22:18:20.000Z,1.1
2023-06-26T22:19:37.000Z,1.2
2023-06-26T22:20:54.000Z,1.2
2023-06-26T22:22:25.000Z,1.4
2023-06-26T22:23:55.000Z,1.3
2023-06-26T22:25:26.000Z,1.5
2023-06-26T22:26:56.000Z,1.2
2023-06-26T22:29:57.000Z,1.3
2023-06-26T22:31:28.000Z,1.4
2023-06-26T22:32:58.000Z,1.4
2023-06-26T22:34:29.000Z,1.1
2023-06-26T22:35:46.000Z,1.4
2023-06-26T22:37:02.000Z,1.1
2023-06-26T22:38:33.000Z,1.2
2023-06-26T22:40:03.000Z,1.1
2023-06-26T22:41:34.000Z,1.3
2023-06-26T22:43:04.000Z,1.3
2023-06-26T22:44:35.000Z,1.3
2023-06-26T22:46:05.000Z,1.1
2023-06-26T22:47:36.000Z,1.6
2023-06-26T22:49:06.000Z,1.3
2023-06-26T22:50:37.000Z,1.3
2023-06-26T22:51:54.000Z,1.1
2023-06-26T22:53:11.000Z,1.2
2023-06-26T22:54:41.000Z,1.4
2023-06-26T22:56:12.000Z,1.4
2023-06-26T22:59:13.000Z,1.3
2023-06-26T23:00:43.000Z,1.1
2023-06-26T23:02:14.000Z,1.3
2023-06-26T23:03:44.000Z,1.5
2023-06-26T23:05:15.000Z,1.4
2023-06-26T23:09:19.000Z,1.4
2023-06-26T23:10:50.000Z,1.4
2023-06-26T23:12:20.000Z,1.4
2023-06-26T23:13:51.000Z,1.3
2023-06-26T23:15:21.000Z,1.4
2023-06-26T23:16:52.000Z,1.2
2023-06-26T23:18:22.000Z,1.3
2023-06-26T23:19:53.000Z,1.3
2023-06-26T23:21:24.000Z,1.4
2023-06-26T23:24:11.000Z,1.3
2023-06-26T23:25:28.000Z,1.4
2023-06-26T23:26:58.000Z,1.4
2023-06-26T23:28:29.000Z,1.5
2023-06-26T23:30:00.000Z,1.4
2023-06-26T23:33:59.000Z,1.3
2023-06-26T23:36:44.000Z,1.2
2023-06-26T23:39:17.000Z,1.5
2023-06-26T23:40:35.000Z,1.6
2023-06-26T23:43:19.000Z,1.7
2023-06-26T23:46:04.000Z,1.4
2023-06-26T23:48:49.000Z,1.5
2023-06-26T23:51:33.000Z,1.5
2023-06-26T23:54:18.000Z,1.4
2023-06-26T23:57:02.000Z,1.3
2023-06-26T23:59:47.000Z,1.5
